createdAt,value
2018-11-13T00:00:29.518Z,101290.45
2018-11-13T00:03:34.223Z,101291.80
2018-11-13T00:06:38.081Z,101288.41
2018-11-13T00:09:42.280Z,101284.67
2018-11-13T00:12:46.128Z,101286.02
2018-11-13T00:15:49.985Z,101299.80
2018-11-13T00:18:53.857Z,101307.50
2018-11-13T00:21:58.050Z,101312.25
2018-11-13T00:25:01.915Z,101321.70
2018-11-13T00:28:05.980Z,101325.47
2018-11-13T00:31:10.165Z,101326.39
2018-11-13T00:34:14.017Z,101329.02
2018-11-13T00:37:17.880Z,101339.84
2018-11-13T00:40:22.085Z,101335.55
2018-11-13T00:43:26.281Z,101328.80
2018-11-13T00:46:30.138Z,101345.04
2018-11-13T00:49:34.332Z,101349.33
2018-11-13T00:52:38.522Z,101345.98
2018-11-13T00:55:42.910Z,101345.94
2018-11-13T00:58:46.777Z,101332.33
2018-11-13T01:01:50.871Z,101339.22
2018-11-13T01:04:54.938Z,101335.88
2018-11-13T01:07:58.966Z,101328.29
2018-11-13T01:11:03.588Z,101332.52
2018-11-13T01:14:08.222Z,101343.74
2018-11-13T01:17:12.468Z,101359.97
2018-11-13T01:20:17.172Z,101350.23
2018-11-13T01:23:21.029Z,101348.17
2018-11-13T01:26:25.220Z,101349.41
2018-11-13T01:29:29.420Z,101354.20
2018-11-13T01:32:33.581Z,101355.98
2018-11-13T01:35:37.784Z,101359.84
2018-11-13T01:38:41.974Z,101356.44
2018-11-13T01:41:45.847Z,101348.30
2018-11-13T01:44:49.898Z,101345.78
2018-11-13T01:47:54.339Z,101345.39
2018-11-13T01:51:01.370Z,101346.95
2018-11-13T01:54:06.259Z,101351.70
2018-11-13T01:57:10.656Z,101338.59
2018-11-13T02:00:17.977Z,101336.61
2018-11-13T02:03:22.165Z,101329.25
2018-11-13T02:06:26.395Z,101322.89
2018-11-13T02:09:30.584Z,101342.13
2018-11-13T02:12:34.560Z,101334.44
2018-11-13T02:15:38.778Z,101341.36
2018-11-13T02:18:42.638Z,101339.68
2018-11-13T02:21:46.829Z,101331.20
2018-11-13T02:24:50.685Z,101327.86
2018-11-13T02:27:54.864Z,101327.50
2018-11-13T02:31:00.578Z,101325.44
2018-11-13T02:34:05.277Z,101328.95
2018-11-13T02:37:09.129Z,101316.13
2018-11-13T02:40:13.438Z,101314.91
2018-11-13T02:43:17.293Z,101306.88
2018-11-13T02:46:21.792Z,101309.00
2018-11-13T02:49:25.790Z,101308.23
2018-11-13T02:52:29.821Z,101306.62
2018-11-13T02:55:33.678Z,101308.41
2018-11-13T02:58:37.741Z,101308.97
2018-11-13T03:01:41.933Z,101310.64
2018-11-13T03:04:46.002Z,101315.06
2018-11-13T03:07:50.194Z,101310.88
2018-11-13T03:10:54.387Z,101312.17
2018-11-13T03:13:58.297Z,101311.50
2018-11-13T03:17:02.310Z,101319.63
2018-11-13T03:20:08.493Z,101324.78
2018-11-13T03:23:12.555Z,101326.95
2018-11-13T03:26:16.740Z,101325.33
2018-11-13T03:29:20.601Z,101329.23
2018-11-13T03:32:24.452Z,101332.30
2018-11-13T03:35:28.308Z,101334.02
2018-11-13T03:38:32.163Z,101320.45
2018-11-13T03:41:36.622Z,101316.14
2018-11-13T03:44:40.656Z,101314.09
2018-11-13T03:47:44.542Z,101314.15
2018-11-13T03:50:48.407Z,101309.52
2018-11-13T03:53:52.465Z,101311.25
2018-11-13T03:56:56.342Z,101307.41
2018-11-13T04:00:00.390Z,101295.88
2018-11-13T04:03:04.494Z,101284.92
2018-11-13T04:06:08.693Z,101291.37
2018-11-13T04:09:13.857Z,101291.37
2018-11-13T04:12:17.729Z,101303.41
2018-11-13T04:15:23.112Z,101310.75
2018-11-13T04:18:26.968Z,101299.67
2018-11-13T04:21:30.848Z,101309.08
2018-11-13T04:24:35.034Z,101324.45
2018-11-13T04:27:39.233Z,101327.98
2018-11-13T04:30:43.245Z,101324.19
2018-11-13T04:33:47.466Z,101325.02
2018-11-13T04:36:51.503Z,101322.56
2018-11-13T04:39:55.692Z,101319.22
2018-11-13T04:42:59.546Z,101320.11
2018-11-13T04:46:03.402Z,101317.11
2018-11-13T04:49:07.608Z,101318.39
2018-11-13T04:52:11.793Z,101313.70
2018-11-13T04:55:15.934Z,101326.19
2018-11-13T04:58:19.791Z,101323.61
2018-11-13T05:01:23.748Z,101329.64
2018-11-13T05:04:27.610Z,101330.14
2018-11-13T05:07:31.473Z,101339.00
2018-11-13T05:10:35.585Z,101335.98
2018-11-13T05:13:39.441Z,101344.56
2018-11-13T05:16:43.293Z,101343.28
2018-11-13T05:19:47.149Z,101351.41
2018-11-13T05:22:51.203Z,101353.14
2018-11-13T05:25:55.262Z,101364.66
2018-11-13T05:28:59.319Z,101360.03
2018-11-13T05:32:03.476Z,101377.97
2018-11-13T05:35:09.561Z,101364.81
2018-11-13T05:38:13.605Z,101380.18
2018-11-13T05:41:17.769Z,101375.50
2018-11-13T05:44:21.632Z,101381.95
2018-11-13T05:47:25.490Z,101389.64
2018-11-13T05:50:29.546Z,101387.86
2018-11-13T05:53:33.717Z,101383.19
2018-11-13T05:56:37.585Z,101392.64
2018-11-13T05:59:41.541Z,101391.31
2018-11-13T06:02:45.864Z,101404.22
2018-11-13T06:05:49.713Z,101394.37
2018-11-13T06:08:53.569Z,101397.39
2018-11-13T06:11:57.429Z,101391.43
2018-11-13T06:15:01.282Z,101386.29
2018-11-13T06:18:05.172Z,101389.64
2018-11-13T06:21:09.549Z,101381.56
2018-11-13T06:24:13.397Z,101367.55
2018-11-13T06:27:17.249Z,101372.20
2018-11-13T06:30:23.558Z,101370.50
2018-11-13T06:33:27.421Z,101368.83
2018-11-13T06:36:31.649Z,101372.59
2018-11-13T06:39:35.493Z,101375.23
2018-11-13T06:42:40.035Z,101399.55
2018-11-13T06:45:43.889Z,101401.23
2018-11-13T06:48:47.949Z,101407.68
2018-11-13T06:51:52.082Z,101393.97
2018-11-13T06:55:01.120Z,101379.06
2018-11-13T06:58:05.824Z,101386.31
2018-11-13T07:01:09.674Z,101408.45
2018-11-13T07:04:13.517Z,101404.17
2018-11-13T07:07:17.368Z,101392.64
2018-11-13T07:10:22.517Z,101406.33
2018-11-13T07:13:26.360Z,101402.50
2018-11-13T07:16:30.550Z,101402.94
2018-11-13T07:19:34.408Z,101406.68
2018-11-13T07:22:38.313Z,101407.47
2018-11-13T07:25:42.176Z,101404.52
2018-11-13T07:28:46.027Z,101389.09
2018-11-13T07:31:49.885Z,101386.48
2018-11-13T07:34:54.277Z,101386.38
2018-11-13T07:37:59.570Z,101399.19
2018-11-13T07:41:03.488Z,101392.39
2018-11-13T07:44:07.809Z,101388.55
2018-11-13T07:47:12.068Z,101383.03
2018-11-13T07:50:16.760Z,101397.45
2018-11-13T07:53:20.623Z,101399.52
2018-11-13T07:56:24.657Z,101405.03
2018-11-13T07:59:28.513Z,101406.61
2018-11-13T08:02:32.352Z,101395.45
2018-11-13T08:05:36.258Z,101400.97
2018-11-13T08:08:40.283Z,101398.30
2018-11-13T08:11:44.333Z,101400.32
2018-11-13T08:14:48.266Z,101413.48
2018-11-13T08:17:52.341Z,101405.72
2018-11-13T08:20:56.228Z,101405.27
2018-11-13T08:24:00.237Z,101391.91
2018-11-13T08:27:04.094Z,101396.98
2018-11-13T08:30:12.739Z,101401.22
2018-11-13T08:33:16.602Z,101396.86
2018-11-13T08:36:20.644Z,101397.20
2018-11-13T08:39:24.500Z,101394.14
2018-11-13T08:42:28.352Z,101394.53
2018-11-13T08:45:32.213Z,101382.89
2018-11-13T08:48:36.301Z,101379.87
2018-11-13T08:51:40.157Z,101379.77
2018-11-13T08:54:44.001Z,101386.50
2018-11-13T08:57:47.866Z,101391.97
2018-11-13T09:00:51.721Z,101391.91
2018-11-13T09:03:55.565Z,101395.30
2018-11-13T09:06:59.959Z,101404.22
2018-11-13T09:10:04.717Z,101413.08
2018-11-13T09:13:08.888Z,101422.84
2018-11-13T09:16:12.750Z,101426.19
2018-11-13T09:19:16.751Z,101424.83
2018-11-13T09:22:20.669Z,101431.13
2018-11-13T09:25:24.729Z,101429.35
2018-11-13T09:28:28.789Z,101427.13
2018-11-13T09:31:32.691Z,101424.04
2018-11-13T09:34:36.700Z,101427.77
2018-11-13T09:37:40.981Z,101429.00
2018-11-13T09:40:45.016Z,101431.46
2018-11-13T09:43:49.285Z,101433.55
2018-11-13T09:46:53.745Z,101430.05
2018-11-13T09:49:57.601Z,101430.83
2018-11-13T09:53:01.678Z,101418.39
2018-11-13T09:56:05.716Z,101420.84
2018-11-13T09:59:10.105Z,101429.83
2018-11-13T10:02:14.955Z,101432.75
2018-11-13T10:05:19.430Z,101431.41
2018-11-13T10:08:23.621Z,101433.48
2018-11-13T10:11:27.810Z,101432.53
2018-11-13T10:14:32.000Z,101440.95
2018-11-13T10:17:35.867Z,101441.77
2018-11-13T10:20:39.904Z,101446.34
2018-11-13T10:23:43.769Z,101444.05
2018-11-13T10:26:47.980Z,101433.31
2018-11-13T10:29:51.852Z,101443.02
2018-11-13T10:32:56.249Z,101435.66
2018-11-13T10:36:00.106Z,101434.70
2018-11-13T10:39:04.965Z,101441.04
2018-11-13T10:42:09.164Z,101426.00
2018-11-13T10:45:16.926Z,101432.30
2018-11-13T10:48:20.790Z,101431.73
2018-11-13T10:51:24.652Z,101431.71
2018-11-13T10:54:28.523Z,101439.35
2018-11-13T10:57:32.378Z,101445.66
2018-11-13T11:00:41.685Z,101444.70
2018-11-13T11:03:51.248Z,101454.08
2018-11-13T11:06:55.100Z,101462.56
2018-11-13T11:09:58.965Z,101455.67
2018-11-13T11:13:02.895Z,101470.18
2018-11-13T11:16:06.889Z,101471.02
2018-11-13T11:19:10.761Z,101474.36
2018-11-13T11:22:14.812Z,101476.93
2018-11-13T11:25:18.701Z,101475.20
2018-11-13T11:28:22.735Z,101473.02
2018-11-13T11:31:26.929Z,101465.77
2018-11-13T11:34:30.801Z,101468.27
2018-11-13T11:37:34.671Z,101476.37
2018-11-13T11:40:38.720Z,101474.64
2018-11-13T11:43:47.852Z,101476.73
2018-11-13T11:46:51.698Z,101479.69
2018-11-13T11:49:55.566Z,101471.98
2018-11-13T11:52:59.416Z,101474.94
2018-11-13T11:56:03.495Z,101471.53
2018-11-13T11:59:09.220Z,101471.92
2018-11-13T12:02:13.424Z,101464.22
2018-11-13T12:05:17.460Z,101466.34
2018-11-13T12:08:21.317Z,101470.58
2018-11-13T12:11:25.188Z,101476.94
2018-11-13T12:14:29.256Z,101471.75
2018-11-13T12:17:33.151Z,101467.89
2018-11-13T12:20:37.213Z,101470.34
2018-11-13T12:23:41.657Z,101465.66
2018-11-13T12:26:45.512Z,101462.19
2018-11-13T12:29:49.423Z,101478.47
2018-11-13T12:32:53.472Z,101475.03
2018-11-13T12:35:57.338Z,101478.89
2018-11-13T12:39:01.574Z,101475.92
2018-11-13T12:42:05.960Z,101467.38
2018-11-13T12:45:10.642Z,101465.66
2018-11-13T12:48:14.498Z,101471.23
2018-11-13T12:51:24.070Z,101476.38
2018-11-13T12:54:28.123Z,101472.97
2018-11-13T12:57:32.181Z,101474.20
2018-11-13T13:00:36.036Z,101478.05
2018-11-13T13:03:40.243Z,101474.20
2018-11-13T13:06:44.098Z,101479.33
2018-11-13T13:09:48.032Z,101472.47
2018-11-13T13:12:52.117Z,101481.04
2018-11-13T13:15:55.976Z,101475.09
2018-11-13T13:18:59.937Z,101485.75
2018-11-13T13:22:04.315Z,101494.75
2018-11-13T13:25:10.991Z,101491.78
2018-11-13T13:28:14.858Z,101502.06
2018-11-13T13:31:18.959Z,101497.48
2018-11-13T13:34:22.822Z,101495.31
2018-11-13T13:37:26.672Z,101494.59
2018-11-13T13:40:30.565Z,101510.06
2018-11-13T13:43:35.352Z,101510.14
2018-11-13T13:46:39.612Z,101513.97
2018-11-13T13:49:43.605Z,101515.72
2018-11-13T13:52:48.037Z,101519.19
2018-11-13T13:55:52.723Z,101518.02
2018-11-13T13:58:56.578Z,101515.17
2018-11-13T14:02:00.437Z,101521.68
2018-11-13T14:05:04.606Z,101526.92
2018-11-13T14:08:09.167Z,101530.05
2018-11-13T14:11:13.229Z,101536.02
2018-11-13T14:14:17.436Z,101533.52
2018-11-13T14:17:21.293Z,101522.04
2018-11-13T14:20:25.347Z,101531.86
2018-11-13T14:23:29.544Z,101536.22
2018-11-13T14:26:33.417Z,101533.65
2018-11-13T14:29:38.499Z,101535.83
2018-11-13T14:32:42.757Z,101535.09
2018-11-13T14:35:47.389Z,101533.45
2018-11-13T14:38:51.248Z,101538.66
2018-11-13T14:41:55.113Z,101545.58
2018-11-13T14:44:59.320Z,101549.42
2018-11-13T14:48:03.360Z,101552.09
2018-11-13T14:51:07.557Z,101558.13
2018-11-13T14:54:11.602Z,101567.19
2018-11-13T14:57:15.661Z,101574.86
2018-11-13T15:00:21.732Z,101579.18
2018-11-13T15:03:26.160Z,101577.89
2018-11-13T15:06:30.013Z,101588.61
2018-11-13T15:09:34.222Z,101592.95
2018-11-13T15:12:38.169Z,101598.53
2018-11-13T15:15:42.378Z,101599.81
2018-11-13T15:18:46.237Z,101604.16
2018-11-13T15:21:50.085Z,101609.30
2018-11-13T15:24:53.942Z,101608.95
2018-11-13T15:27:57.797Z,101609.41
2018-11-13T15:31:01.739Z,101611.97
2018-11-13T15:34:06.301Z,101611.64
2018-11-13T15:37:10.489Z,101612.19
2018-11-13T15:40:16.781Z,101613.53
2018-11-13T15:43:21.214Z,101620.90
2018-11-13T15:46:25.077Z,101621.00
2018-11-13T15:49:29.129Z,101624.95
2018-11-13T15:52:33.359Z,101631.42
2018-11-13T15:55:37.362Z,101632.08
2018-11-13T15:58:41.422Z,101633.45
2018-11-13T16:01:45.269Z,101640.83
2018-11-13T16:04:49.117Z,101651.23
2018-11-13T16:07:54.464Z,101649.25
2018-11-13T16:10:58.504Z,101648.71
2018-11-13T16:14:02.592Z,101656.70
2018-11-13T16:17:07.021Z,101663.86
2018-11-13T16:20:11.106Z,101660.60
2018-11-13T16:23:14.975Z,101662.14
2018-11-13T16:26:18.820Z,101662.77
2018-11-13T16:29:22.685Z,101659.22
2018-11-13T16:32:26.777Z,101659.66
2018-11-13T16:35:31.566Z,101660.55
2018-11-13T16:38:35.906Z,101666.77
2018-11-13T16:41:40.659Z,101667.70
2018-11-13T16:44:44.509Z,101674.55
2018-11-13T16:47:48.408Z,101679.94
2018-11-13T16:50:52.809Z,101688.90
2018-11-13T16:54:03.493Z,101691.86
2018-11-13T16:57:07.993Z,101702.52
2018-11-13T17:00:12.100Z,101694.82
2018-11-13T17:03:16.129Z,101696.45
2018-11-13T17:06:20.007Z,101701.14
2018-11-13T17:09:24.064Z,101703.80
2018-11-13T17:12:28.137Z,101709.80
2018-11-13T17:15:32.506Z,101714.53
2018-11-13T17:18:36.370Z,101736.33
2018-11-13T17:21:40.223Z,101733.33
2018-11-13T17:24:44.077Z,101731.16
2018-11-13T17:27:49.282Z,101727.27
2018-11-13T17:30:53.472Z,101733.28
2018-11-13T17:33:57.353Z,101737.52
2018-11-13T17:37:01.741Z,101749.11
2018-11-13T17:40:08.511Z,101748.22
2018-11-13T17:43:12.705Z,101752.95
2018-11-13T17:46:16.885Z,101751.27
2018-11-13T17:49:20.926Z,101758.97
2018-11-13T17:52:24.790Z,101753.84
2018-11-13T17:55:28.976Z,101764.59
2018-11-13T17:58:32.826Z,101774.41
2018-11-13T18:01:36.685Z,101763.75
2018-11-13T18:04:40.833Z,101762.91
2018-11-13T18:07:44.792Z,101762.07
2018-11-13T18:10:49.357Z,101767.59
2018-11-13T18:13:53.559Z,101772.77
2018-11-13T18:16:57.752Z,101779.97
2018-11-13T18:20:02.159Z,101773.16
2018-11-13T18:23:06.769Z,101781.30
2018-11-13T18:26:10.962Z,101776.17
2018-11-13T18:29:14.822Z,101775.73
2018-11-13T18:32:18.688Z,101781.34
2018-11-13T18:35:24.265Z,101780.91
2018-11-13T18:38:28.265Z,101779.22
2018-11-13T18:41:32.214Z,101772.86
2018-11-13T18:44:36.909Z,101775.81
2018-11-13T18:47:41.334Z,101774.53
2018-11-13T18:50:45.883Z,101775.42
2018-11-13T18:53:49.733Z,101781.87
2018-11-13T18:56:53.774Z,101786.16
2018-11-13T18:59:57.630Z,101785.72
2018-11-13T19:03:02.754Z,101790.00
2018-11-13T19:06:07.177Z,101798.55
2018-11-13T19:09:12.556Z,101800.66
2018-11-13T19:12:16.751Z,101798.14
2018-11-13T19:15:21.137Z,101808.34
2018-11-13T19:18:25.021Z,101817.72
2018-11-13T19:21:29.389Z,101819.44
2018-11-13T19:24:33.449Z,101824.57
2018-11-13T19:27:37.314Z,101826.69
2018-11-13T19:30:41.523Z,101836.50
2018-11-13T19:33:45.577Z,101842.88
2018-11-13T19:36:49.559Z,101843.31
2018-11-13T19:39:53.567Z,101841.59
2018-11-13T19:42:58.738Z,101847.11
2018-11-13T19:46:03.133Z,101838.58
2018-11-13T19:49:07.001Z,101844.20
2018-11-13T19:52:11.052Z,101850.61
2018-11-13T19:55:15.812Z,101848.48
2018-11-13T19:58:20.003Z,101846.41
2018-11-13T20:01:24.186Z,101846.85
2018-11-13T20:04:28.745Z,101853.27
2018-11-13T20:07:32.649Z,101853.74
2018-11-13T20:10:37.426Z,101858.47
2018-11-13T20:13:48.072Z,101864.08
2018-11-13T20:16:51.948Z,101871.81
2018-11-13T20:19:55.826Z,101870.61
2018-11-13T20:23:00.753Z,101879.53
2018-11-13T20:26:04.616Z,101879.14
2018-11-13T20:29:08.471Z,101887.28
2018-11-13T20:32:12.531Z,101890.72
2018-11-13T20:35:16.727Z,101888.16
2018-11-13T20:38:20.590Z,101891.20
2018-11-13T20:41:24.647Z,101891.20
2018-11-13T20:44:28.749Z,101892.48
2018-11-13T20:47:32.764Z,101904.02
2018-11-13T20:50:36.961Z,101901.05
2018-11-13T20:53:40.821Z,101897.25
2018-11-13T20:56:45.025Z,101908.81
2018-11-13T20:59:48.880Z,101906.26
2018-11-13T21:02:52.748Z,101912.26
2018-11-13T21:05:56.609Z,101906.30
2018-11-13T21:09:00.821Z,101912.66
2018-11-13T21:12:04.693Z,101912.70
2018-11-13T21:15:10.769Z,101907.58
2018-11-13T21:18:14.693Z,101913.10
2018-11-13T21:21:18.540Z,101916.50
2018-11-13T21:24:22.409Z,101919.51
2018-11-13T21:27:26.601Z,101933.17
2018-11-13T21:30:30.555Z,101924.64
2018-11-13T21:33:34.530Z,101927.16
2018-11-13T21:36:38.394Z,101928.44
2018-11-13T21:39:42.448Z,101926.31
2018-11-13T21:42:47.530Z,101931.41
2018-11-13T21:45:51.535Z,101944.63
2018-11-13T21:48:55.921Z,101947.19
2018-11-13T21:52:00.115Z,101953.15
2018-11-13T21:55:04.317Z,101957.39
2018-11-13T21:58:08.171Z,101964.69
2018-11-13T22:01:12.282Z,101965.13
2018-11-13T22:04:16.397Z,101959.56
2018-11-13T22:07:20.976Z,101964.69
2018-11-13T22:10:24.852Z,101972.41
2018-11-13T22:13:28.701Z,101977.13
2018-11-13T22:16:32.628Z,101984.42
2018-11-13T22:19:36.692Z,101982.33
2018-11-13T22:22:41.145Z,101994.31
2018-11-13T22:25:45.016Z,101997.75
2018-11-13T22:28:49.052Z,101998.63
2018-11-13T22:31:52.938Z,102006.80
2018-11-13T22:34:56.799Z,102004.23
2018-11-13T22:38:00.652Z,102010.23
2018-11-13T22:41:04.558Z,102012.39
2018-11-13T22:44:08.462Z,102006.90
2018-11-13T22:47:12.468Z,102011.62
2018-11-13T22:50:19.355Z,102012.50
2018-11-13T22:53:23.403Z,102020.19
2018-11-13T22:56:27.277Z,102014.23
2018-11-13T22:59:31.134Z,102019.34
2018-11-13T23:02:35.435Z,102021.91
2018-11-13T23:05:39.418Z,102029.59
2018-11-13T23:08:43.477Z,102033.91
2018-11-13T23:11:47.669Z,102034.31
2018-11-13T23:14:52.153Z,102034.79
2018-11-13T23:17:56.176Z,102043.35
2018-11-13T23:21:00.033Z,102043.80
2018-11-13T23:24:04.667Z,102044.20
2018-11-13T23:27:08.528Z,102047.56
2018-11-13T23:30:15.455Z,102038.70
2018-11-13T23:33:19.789Z,102039.66
2018-11-13T23:36:23.993Z,102044.34
2018-11-13T23:39:27.840Z,102053.33
2018-11-13T23:42:31.913Z,102053.00
2018-11-13T23:45:35.773Z,102058.53
2018-11-13T23:48:39.642Z,102056.38
2018-11-13T23:51:43.499Z,102062.37
2018-11-13T23:54:47.890Z,102069.65
2018-11-13T23:57:51.753Z,102074.40
